Check out our new PWSWeather beta!
PWSweather.com
Personal Weather Stations
Station Observations
AZALEAPK1
San Diego, CA 92105

San Diego, CA 92105

Lat: 32.736, Lon: -117.108

Elevation: 302

Station Type: LaCrosse WS-2813U-IT

Latest ConditionsUpdated 4:29:29 AM PST Thursday, Feb 27, 2020
Currently Today's Max Today's Min Today's Average
Temperature 55.1°F12.8°C 56.0°F13.3°C 54.7°F12.6°C 55.2°F12.9°C
Dew Point 28.4°F-2.0°C 30.6°F-0.8°C 27.7°F-2.4°C 29.1°F-1.6°C
Winds 4.6 mph NNE7.4 kmh NNE 4.6 mph -7.4 kmh - - 2.3 mph 3.7 kmh
Wind Gusts 6.0 mph9.7 kmh 6.0 mph9.7 kmh - -
Humidity 36% 38% 35% 37%
Pressure 30.17 in1021.7 mb 30.22 in1023.4 mb 30.17 in1021.7 mb -
Hour Temp Dew Point Humidity Winds Wind Gusts Pressure Precip Precip Rate Daily Precip Total
04:29 AM 55.1°F12.8°C 28.4°F-2.0°C 36% 4.6 mph NNE7.4 kmh NNE 6.0 mph9.7 kmh 30.17 in1021.7 mb 0.00 in0.0 mm 0.00 in0.0 mm 0.00 in0.0 mm
04:24 AM 54.9°F12.7°C 28.3°F-2.1°C 36% 4.5 mph NNE7.2 kmh NNE 5.8 mph9.3 kmh 30.17 in1021.7 mb 0.00 in0.0 mm 0.00 in0.0 mm 0.00 in0.0 mm
04:18 AM 54.9°F12.7°C 28.3°F-2.1°C 36% 4.2 mph NNE6.8 kmh NNE 5.1 mph8.2 kmh 30.17 in1021.7 mb 0.00 in0.0 mm 0.00 in0.0 mm 0.00 in0.0 mm
04:13 AM 54.7°F12.6°C 28.1°F-2.2°C 36% 4.2 mph NNE6.8 kmh NNE 5.1 mph8.2 kmh 30.17 in1021.7 mb 0.00 in0.0 mm 0.00 in0.0 mm 0.00 in0.0 mm
04:08 AM 54.7°F12.6°C 28.1°F-2.2°C 36% 3.3 mph NNE5.3 kmh NNE 4.7 mph7.6 kmh 30.18 in1022.0 mb 0.00 in0.0 mm 0.00 in0.0 mm 0.00 in0.0 mm
04:02 AM 54.7°F12.6°C 28.1°F-2.2°C 36% 3.1 mph NNE5.0 kmh NNE 4.0 mph6.4 kmh 30.19 in1022.4 mb 0.00 in0.0 mm 0.00 in0.0 mm 0.00 in0.0 mm
03:57 AM 54.9°F12.7°C 28.3°F-2.1°C 36% 2.5 mph NNE4.0 kmh NNE 4.0 mph6.4 kmh 30.19 in1022.4 mb 0.00 in0.0 mm 0.00 in0.0 mm 0.00 in0.0 mm
03:52 AM 54.9°F12.7°C 28.3°F-2.1°C 36% 2.7 mph NNE4.3 kmh NNE 4.0 mph6.4 kmh 30.19 in1022.4 mb 0.00 in0.0 mm 0.00 in0.0 mm 0.00 in0.0 mm
03:46 AM 54.9°F12.7°C 28.3°F-2.1°C 36% 2.3 mph NNE3.7 kmh NNE 3.6 mph5.8 kmh 30.19 in1022.4 mb 0.00 in0.0 mm 0.00 in0.0 mm 0.00 in0.0 mm
03:41 AM 55.1°F12.8°C 28.4°F-2.0°C 36% 1.4 mph NNE2.3 kmh NNE 3.6 mph5.8 kmh 30.19 in1022.4 mb 0.00 in0.0 mm 0.00 in0.0 mm 0.00 in0.0 mm
03:35 AM 55.1°F12.8°C 28.4°F-2.0°C 36% 1.1 mph NNE1.8 kmh NNE 3.8 mph6.1 kmh 30.19 in1022.4 mb 0.00 in0.0 mm 0.00 in0.0 mm 0.00 in0.0 mm
03:29 AM 55.1°F12.8°C 27.7°F-2.4°C 35% 2.0 mph NNE3.2 kmh NNE 4.0 mph6.4 kmh 30.19 in1022.4 mb 0.00 in0.0 mm 0.00 in0.0 mm 0.00 in0.0 mm
03:24 AM 55.1°F12.8°C 27.7°F-2.4°C 35% 3.6 mph NNE5.8 kmh NNE 4.0 mph6.4 kmh 30.19 in1022.4 mb 0.00 in0.0 mm 0.00 in0.0 mm 0.00 in0.0 mm
03:19 AM 55.1°F12.8°C 27.7°F-2.4°C 35% 3.2 mph NNE5.1 kmh NNE 3.6 mph5.8 kmh 30.19 in1022.4 mb 0.00 in0.0 mm 0.00 in0.0 mm 0.00 in0.0 mm
03:14 AM 55.3°F12.9°C 28.5°F-1.9°C 36% 2.2 mph NNE3.5 kmh NNE 2.9 mph4.7 kmh 30.19 in1022.4 mb 0.00 in0.0 mm 0.00 in0.0 mm 0.00 in0.0 mm
03:09 AM 55.3°F12.9°C 28.5°F-1.9°C 36% 0.5 mph NNE0.8 kmh NNE 2.5 mph4.0 kmh 30.19 in1022.4 mb 0.00 in0.0 mm 0.00 in0.0 mm 0.00 in0.0 mm
03:04 AM 55.3°F12.9°C 28.5°F-1.9°C 36% 0.7 mph NNE1.1 kmh NNE 3.1 mph5.0 kmh 30.19 in1022.4 mb 0.00 in0.0 mm 0.00 in0.0 mm 0.00 in0.0 mm
02:58 AM 55.3°F12.9°C 28.5°F-1.9°C 36% 2.5 mph NNE4.0 kmh NNE 3.1 mph5.0 kmh 30.19 in1022.4 mb 0.00 in0.0 mm 0.00 in0.0 mm 0.00 in0.0 mm
02:53 AM 55.3°F12.9°C 28.5°F-1.9°C 36% 2.2 mph NNE3.5 kmh NNE 3.1 mph5.0 kmh 30.19 in1022.4 mb 0.00 in0.0 mm 0.00 in0.0 mm 0.00 in0.0 mm
02:47 AM 55.3°F12.9°C 28.5°F-1.9°C 36% 1.8 mph NNE2.9 kmh NNE 3.6 mph5.8 kmh 30.19 in1022.4 mb 0.00 in0.0 mm 0.00 in0.0 mm 0.00 in0.0 mm
02:42 AM 55.3°F12.9°C 28.5°F-1.9°C 36% 2.6 mph NNE4.2 kmh NNE 3.1 mph5.0 kmh 30.19 in1022.4 mb 0.00 in0.0 mm 0.00 in0.0 mm 0.00 in0.0 mm
02:37 AM 55.3°F12.9°C 28.5°F-1.9°C 36% 2.1 mph NNE3.4 kmh NNE 2.5 mph4.0 kmh 30.19 in1022.4 mb 0.00 in0.0 mm 0.00 in0.0 mm 0.00 in0.0 mm
02:32 AM 55.3°F12.9°C 28.5°F-1.9°C 36% 1.4 mph NNE2.3 kmh NNE 2.5 mph4.0 kmh 30.19 in1022.4 mb 0.00 in0.0 mm 0.00 in0.0 mm 0.00 in0.0 mm
02:27 AM 55.3°F12.9°C 28.5°F-1.9°C 36% 1.9 mph NNE3.1 kmh NNE 2.7 mph4.3 kmh 30.20 in1022.7 mb 0.00 in0.0 mm 0.00 in0.0 mm 0.00 in0.0 mm
02:20 AM 55.1°F12.8°C 29.1°F-1.6°C 37% 1.8 mph NNE2.9 kmh NNE 4.0 mph6.4 kmh 30.20 in1022.7 mb 0.00 in0.0 mm 0.00 in0.0 mm 0.00 in0.0 mm
02:15 AM 55.1°F12.8°C 29.1°F-1.6°C 37% 2.4 mph NNE3.9 kmh NNE 4.0 mph6.4 kmh 30.20 in1022.7 mb 0.00 in0.0 mm 0.00 in0.0 mm 0.00 in0.0 mm
02:09 AM 55.1°F12.8°C 29.1°F-1.6°C 37% 2.0 mph NNE3.2 kmh NNE 3.6 mph5.8 kmh 30.20 in1022.7 mb 0.00 in0.0 mm 0.00 in0.0 mm 0.00 in0.0 mm
02:04 AM 55.1°F12.8°C 29.1°F-1.6°C 37% 2.6 mph NNE4.2 kmh NNE 3.8 mph6.1 kmh 30.20 in1022.7 mb 0.00 in0.0 mm 0.00 in0.0 mm 0.00 in0.0 mm
01:59 AM 54.9°F12.7°C 28.9°F-1.7°C 37% 3.6 mph NNE5.8 kmh NNE 4.9 mph7.9 kmh 30.21 in1023.0 mb 0.00 in0.0 mm 0.00 in0.0 mm 0.00 in0.0 mm
01:53 AM 54.9°F12.7°C 28.9°F-1.7°C 37% 4.4 mph NNE7.1 kmh NNE 4.9 mph7.9 kmh 30.21 in1023.0 mb 0.00 in0.0 mm 0.00 in0.0 mm 0.00 in0.0 mm
01:48 AM 54.9°F12.7°C 29.6°F-1.3°C 38% 3.1 mph NNE5.0 kmh NNE 4.7 mph7.6 kmh 30.21 in1023.0 mb 0.00 in0.0 mm 0.00 in0.0 mm 0.00 in0.0 mm
01:43 AM 54.9°F12.7°C 29.6°F-1.3°C 38% 4.0 mph NNE6.4 kmh NNE 4.7 mph7.6 kmh 30.21 in1023.0 mb 0.00 in0.0 mm 0.00 in0.0 mm 0.00 in0.0 mm
01:38 AM 54.9°F12.7°C 29.6°F-1.3°C 38% 2.7 mph NNE4.3 kmh NNE 3.6 mph5.8 kmh 30.21 in1023.0 mb 0.00 in0.0 mm 0.00 in0.0 mm 0.00 in0.0 mm
01:33 AM 55.1°F12.8°C 29.8°F-1.2°C 38% 1.2 mph NNE1.9 kmh NNE 3.6 mph5.8 kmh 30.21 in1023.0 mb 0.00 in0.0 mm 0.00 in0.0 mm 0.00 in0.0 mm
01:27 AM 55.1°F12.8°C 29.8°F-1.2°C 38% 2.8 mph NNE4.5 kmh NNE 3.4 mph5.5 kmh 30.21 in1023.0 mb 0.00 in0.0 mm 0.00 in0.0 mm 0.00 in0.0 mm
01:20 AM 55.3°F12.9°C 30.0°F-1.1°C 38% 1.3 mph NNE2.1 kmh NNE 3.1 mph5.0 kmh 30.21 in1023.0 mb 0.00 in0.0 mm 0.00 in0.0 mm 0.00 in0.0 mm
01:15 AM 55.3°F12.9°C 30.0°F-1.1°C 38% 1.3 mph NNE2.1 kmh NNE 4.0 mph6.4 kmh 30.21 in1023.0 mb 0.00 in0.0 mm 0.00 in0.0 mm 0.00 in0.0 mm
01:10 AM 55.3°F12.9°C 30.0°F-1.1°C 38% 2.3 mph NNE3.7 kmh NNE 4.3 mph6.9 kmh 30.21 in1023.0 mb 0.00 in0.0 mm 0.00 in0.0 mm 0.00 in0.0 mm
01:05 AM 55.3°F12.9°C 30.0°F-1.1°C 38% 2.8 mph NNE4.5 kmh NNE 4.3 mph6.9 kmh 30.21 in1023.0 mb 0.00 in0.0 mm 0.00 in0.0 mm 0.00 in0.0 mm
01:00 AM 55.3°F12.9°C 30.0°F-1.1°C 38% 2.9 mph NNE4.7 kmh NNE 4.0 mph6.4 kmh 30.21 in1023.0 mb 0.00 in0.0 mm 0.00 in0.0 mm 0.00 in0.0 mm
12:54 AM 55.3°F12.9°C 30.0°F-1.1°C 38% 1.7 mph NNE2.7 kmh NNE 3.1 mph5.0 kmh 30.21 in1023.0 mb 0.00 in0.0 mm 0.00 in0.0 mm 0.00 in0.0 mm
12:49 AM 55.3°F12.9°C 30.0°F-1.1°C 38% 2.1 mph NNE3.4 kmh NNE 3.6 mph5.8 kmh 30.21 in1023.0 mb 0.00 in0.0 mm 0.00 in0.0 mm 0.00 in0.0 mm
12:44 AM 55.4°F13.0°C 30.1°F-1.1°C 38% 0.8 mph NNE1.3 kmh NNE 2.0 mph3.2 kmh 30.21 in1023.0 mb 0.00 in0.0 mm 0.00 in0.0 mm 0.00 in0.0 mm
12:39 AM 55.4°F13.0°C 30.1°F-1.1°C 38% 0.9 mph NNE1.4 kmh NNE 3.4 mph5.5 kmh 30.22 in1023.4 mb 0.00 in0.0 mm 0.00 in0.0 mm 0.00 in0.0 mm
12:34 AM 55.6°F13.1°C 30.2°F-1.0°C 38% 1.8 mph NNE2.9 kmh NNE 3.4 mph5.5 kmh 30.22 in1023.4 mb 0.00 in0.0 mm 0.00 in0.0 mm 0.00 in0.0 mm
12:25 AM 55.8°F13.2°C 30.4°F-0.9°C 38% 1.5 mph NNE2.4 kmh NNE 3.1 mph5.0 kmh 30.22 in1023.4 mb 0.00 in0.0 mm 0.00 in0.0 mm 0.00 in0.0 mm
12:20 AM 55.8°F13.2°C 30.4°F-0.9°C 38% 0.3 mph NNE0.5 kmh NNE 2.5 mph4.0 kmh 30.22 in1023.4 mb 0.00 in0.0 mm 0.00 in0.0 mm 0.00 in0.0 mm
12:14 AM 55.8°F13.2°C 30.4°F-0.9°C 38% 1.3 mph NNE2.1 kmh NNE 2.0 mph3.2 kmh 30.22 in1023.4 mb 0.00 in0.0 mm 0.00 in0.0 mm 0.00 in0.0 mm
12:09 AM 56.0°F13.3°C 30.6°F-0.8°C 38% 0.2 mph NNE0.3 kmh NNE 2.0 mph3.2 kmh 30.22 in1023.4 mb 0.00 in0.0 mm 0.00 in0.0 mm 0.00 in0.0 mm
12:04 AM 56.0°F13.3°C 30.6°F-0.8°C 38% 1.3 mph NNE2.1 kmh NNE 2.0 mph3.2 kmh 30.22 in1023.4 mb 0.00 in0.0 mm 0.00 in0.0 mm 0.00 in0.0 mm